aviador You're here:

GMFK Decoded Metar

ER-RACHIDIA in MOROCCO
Report Time2018-01-16 13:00:00
UTC Time2018-01-16 13:11:35
Flight Rules vfr VFR
Wind100° at 11 kt
W.Decomp.*RWY 13: 9.7 kt HW 5.2 kt LCW
W.Rank100° ranks 10
Current wind is above 100° avg. (6.4)
Visibility9999 m
Phenomena:N/A
Clouds:N/A
Expected CloudBase > 7,200 ft AGL from Temp-Dew spread
CeilingNone
Temp14°C (ISA +6)
Dew Point-4°C (29% RH)
AAT7.6°C
QNH1029 hPa
Density Alt3,645 ft
Elevation3,428 ft
Report Wrong Elevation
Raw Report
METAR GMFK 161300Z 10011KT CAVOK 14/M04 Q1029 NOSIG=

Extra information for GMFK:More info

Metar Taf Metar & Taf Last 4 Metars F.Rules Stats Wind Profile Meteogram Temp Stats Airport Information Weather charts Add Link Nearby VenuesMetar ALERT Operation Metar Decoded Social comments